Time;durP1;ratioP1;P1;durP2;ratioP2;P2;SDS_P1;SDS_P2;PMS_P1;PMS_P2;Temp;Humidity;BMP_temperature;BMP_pressure;BME280_temperature;BME280_humidity;BME280_pressure;Samples;Min_cycle;Max_cycle;Signal;HPM_P1;HPM_P2
2022/01/30 00:02:12;;;;;;;1.13;0.80;;;6.80;99.90;;;;;;5016628;28;20660;-60
2022/01/30 00:04:38;;;;;;;1.03;0.70;;;7.60;99.90;;;;;;5013549;28;20262;-60
2022/01/30 00:07:04;;;;;;;1.10;0.77;;;8.00;99.90;;;;;;5020157;28;20186;-61
2022/01/30 00:09:29;;;;;;;0.75;0.75;;;7.70;99.90;;;;;;5013823;28;20714;-60
2022/01/30 00:11:59;;;;;;;0.97;0.80;;;7.40;99.90;;;;;;5015633;28;20191;-60
2022/01/30 00:14:27;;;;;;;1.05;0.95;;;7.60;99.90;;;;;;5020348;28;20536;-60
2022/01/30 00:17:02;;;;;;;1.20;1.00;;;7.40;99.90;;;;;;5016372;28;20179;-60
2022/01/30 00:19:37;;;;;;;1.33;0.95;;;7.60;99.90;;;;;;5022040;28;20184;-61
2022/01/30 00:24:58;;;;;;;0.88;0.88;;;7.40;99.90;;;;;;5018796;28;20288;-61
2022/01/30 00:27:45;;;;;;;0.90;0.90;;;7.60;99.90;;;;;;5020594;28;20248;-61
2022/01/30 00:30:14;;;;;;;1.55;0.90;;;7.80;99.90;;;;;;5020635;28;20260;-61
2022/01/30 00:32:40;;;;;;;1.10;1.00;;;7.90;99.90;;;;;;5015694;28;20232;-61
2022/01/30 00:35:08;;;;;;;0.80;0.73;;;7.90;99.90;;;;;;5020125;28;20198;-60
2022/01/30 00:37:39;;;;;;;1.00;0.90;;;7.90;99.90;;;;;;5021838;28;20448;-61
2022/01/30 00:40:06;;;;;;;0.80;0.80;;;8.30;99.90;;;;;;5022442;28;20213;-61
2022/01/30 00:42:32;;;;;;;1.10;1.00;;;7.80;99.90;;;;;;5014774;28;20198;-61
2022/01/30 00:44:57;;;;;;;1.00;0.80;;;7.90;99.90;;;;;;5022136;28;20218;-61
2022/01/30 00:47:23;;;;;;;1.17;1.07;;;7.80;99.90;;;;;;5014290;28;20437;-61
2022/01/30 00:49:49;;;;;;;1.67;1.03;;;8.00;99.90;;;;;;5013475;28;20394;-60
2022/01/30 00:52:16;;;;;;;0.90;0.80;;;8.00;99.90;;;;;;5021369;28;20182;-60
2022/01/30 00:54:45;;;;;;;1.55;1.10;;;7.80;99.90;;;;;;5018826;28;20268;-61
2022/01/30 00:57:11;;;;;;;1.00;0.90;;;7.90;99.90;;;;;;5013938;28;20233;-60
2022/01/30 00:59:37;;;;;;;1.07;1.07;;;7.90;99.90;;;;;;5020608;28;20556;-60
2022/01/30 01:02:03;;;;;;;1.30;1.00;;;8.00;99.90;;;;;;5016902;28;20175;-60
2022/01/30 01:04:29;;;;;;;1.10;1.00;;;8.00;99.90;;;;;;5023991;28;20226;-61
2022/01/30 01:06:55;;;;;;;1.03;0.90;;;8.00;99.90;;;;;;5023840;28;20190;-60
2022/01/30 01:09:25;;;;;;;1.13;0.87;;;8.00;99.90;;;;;;5013577;28;20269;-61
2022/01/30 01:12:34;;;;;;;1.20;1.10;;;7.90;99.90;;;;;;5019956;28;20640;-61
2022/01/30 01:25:50;;;;;;;1.15;1.05;;;8.00;99.90;;;;;;5015941;28;20568;-61
2022/01/30 01:28:15;;;;;;;1.30;0.97;;;8.20;99.90;;;;;;5024440;28;20194;-61
2022/01/30 01:30:41;;;;;;;2.70;1.30;;;8.10;99.90;;;;;;5020097;28;20210;-60
2022/01/30 01:33:06;;;;;;;1.13;1.07;;;8.00;99.90;;;;;;5013731;28;20175;-61
2022/01/30 01:35:32;;;;;;;1.20;1.10;;;8.00;99.90;;;;;;5017861;28;20699;-61
2022/01/30 01:37:58;;;;;;;1.10;1.00;;;8.30;99.90;;;;;;5018760;28;20549;-61
2022/01/30 01:40:24;;;;;;;0.87;0.80;;;7.80;99.90;;;;;;5010886;28;20420;-61
2022/01/30 01:42:49;;;;;;;1.07;0.97;;;8.00;99.90;;;;;;5019662;28;20210;-60
2022/01/30 01:45:22;;;;;;;1.17;1.07;;;7.70;99.90;;;;;;5019599;28;20210;-61
2022/01/30 01:47:48;;;;;;;1.15;1.00;;;7.90;99.90;;;;;;5017947;28;20444;-61
2022/01/30 01:50:27;;;;;;;0.80;0.80;;;7.70;99.90;;;;;;5016013;28;20209;-60
2022/01/30 01:52:53;;;;;;;1.23;1.13;;;7.90;99.90;;;;;;5022302;28;20182;-61
2022/01/30 01:55:19;;;;;;;1.10;0.90;;;8.20;99.90;;;;;;5015038;28;20215;-61
2022/01/30 01:57:44;;;;;;;1.20;1.10;;;8.20;99.90;;;;;;5011630;28;20565;-61
2022/01/30 02:00:11;;;;;;;1.30;1.20;;;8.00;99.90;;;;;;5019236;28;20264;-60
2022/01/30 02:02:36;;;;;;;1.40;1.10;;;7.90;99.90;;;;;;5015952;28;20233;-61
2022/01/30 02:05:05;;;;;;;1.20;1.00;;;7.70;99.90;;;;;;5024191;28;20783;-61
2022/01/30 02:08:03;;;;;;;1.20;1.10;;;8.00;99.90;;;;;;5016490;28;20476;-61
2022/01/30 02:11:06;;;;;;;1.10;1.00;;;8.00;99.90;;;;;;5009982;28;20211;-61
2022/01/30 02:24:29;;;;;;;1.70;1.00;;;8.10;99.90;;;;;;5017114;28;20213;-61
2022/01/30 02:26:55;;;;;;;1.20;1.10;;;8.20;99.90;;;;;;5014476;28;20611;-61
2022/01/30 02:29:21;;;;;;;5.27;1.40;;;8.00;99.90;;;;;;5015043;28;20220;-61
2022/01/30 02:31:47;;;;;;;1.40;1.30;;;7.60;99.90;;;;;;5014091;28;20502;-61
2022/01/30 02:34:13;;;;;;;1.50;1.00;;;8.20;99.90;;;;;;5022863;28;20544;-60
2022/01/30 02:36:47;;;;;;;1.20;1.10;;;7.90;99.90;;;;;;5015328;28;20245;-60
2022/01/30 02:39:13;;;;;;;1.23;1.13;;;8.20;99.90;;;;;;5019952;28;20652;-61
2022/01/30 02:41:40;;;;;;;1.83;1.20;;;7.90;99.90;;;;;;5015163;28;20198;-61
2022/01/30 02:44:16;;;;;;;1.80;1.70;;;8.00;99.90;;;;;;5026436;28;20911;-61
2022/01/30 02:46:50;;;;;;;1.60;1.10;;;8.20;99.90;;;;;;5021580;28;20196;-61
2022/01/30 02:51:53;;;;;;;1.33;1.23;;;8.20;99.90;;;;;;5025478;28;20278;-61
2022/01/30 02:54:20;;;;;;;0.93;0.85;;;8.30;99.90;;;;;;5022356;28;20217;-61
2022/01/30 02:56:45;;;;;;;1.00;0.93;;;8.00;99.90;;;;;;5013486;28;20183;-61
2022/01/30 02:59:12;;;;;;;1.23;0.90;;;8.10;99.90;;;;;;5024856;28;20201;-61
2022/01/30 03:01:38;;;;;;;1.20;1.10;;;8.10;99.90;;;;;;5016583;28;20977;-61
2022/01/30 03:04:04;;;;;;;1.15;1.05;;;8.10;99.90;;;;;;5024518;28;20229;-61
2022/01/30 03:06:30;;;;;;;1.17;1.08;;;8.20;99.90;;;;;;5023051;28;20210;-61
2022/01/30 03:08:55;;;;;;;2.07;1.40;;;8.30;99.90;;;;;;5021257;28;20206;-61
2022/01/30 03:11:21;;;;;;;1.77;1.20;;;8.30;99.90;;;;;;5019409;28;20183;-61
2022/01/30 03:13:47;;;;;;;1.90;1.20;;;8.50;99.90;;;;;;5041451;22;20232;-58
2022/01/30 03:16:13;;;;;;;2.40;2.20;;;8.30;99.90;;;;;;5062060;28;20268;-58
2022/01/30 03:18:40;;;;;;;1.87;1.40;;;8.30;99.90;;;;;;5064417;28;20463;-58
2022/01/30 03:21:06;;;;;;;2.85;1.60;;;8.50;99.90;;;;;;5067688;28;20268;-58
2022/01/30 03:23:36;;;;;;;2.13;1.07;;;8.50;99.90;;;;;;5068388;28;20295;-58
2022/01/30 03:26:01;;;;;;;1.40;1.30;;;8.30;99.90;;;;;;5061054;28;20192;-58
2022/01/30 03:28:28;;;;;;;2.00;1.57;;;8.60;99.90;;;;;;5055778;28;20181;-58
2022/01/30 03:30:59;;;;;;;1.92;1.75;;;8.50;99.90;;;;;;5068236;28;20274;-58
2022/01/30 03:33:25;;;;;;;1.30;1.20;;;8.20;99.90;;;;;;5066032;28;20201;-57
2022/01/30 03:35:50;;;;;;;1.97;1.10;;;8.40;99.90;;;;;;5061640;28;21217;-58
2022/01/30 03:38:16;;;;;;;1.77;1.10;;;8.50;99.90;;;;;;5068662;28;20530;-58
2022/01/30 03:40:45;;;;;;;0.93;0.93;;;8.70;99.90;;;;;;5059735;28;20889;-58
2022/01/30 03:43:10;;;;;;;1.60;1.20;;;8.40;99.90;;;;;;5062932;28;20422;-57
2022/01/30 03:45:36;;;;;;;0.90;0.90;;;8.50;99.90;;;;;;5063544;28;20737;-58
2022/01/30 03:48:03;;;;;;;1.23;0.98;;;8.50;99.90;;;;;;5064711;28;20189;-58
2022/01/30 03:50:29;;;;;;;1.23;1.13;;;8.40;99.90;;;;;;5072322;28;20216;-57
2022/01/30 03:52:55;;;;;;;1.13;1.03;;;8.50;99.90;;;;;;5067469;28;20192;-57
2022/01/30 03:55:21;;;;;;;2.70;1.10;;;8.30;99.90;;;;;;5064977;28;20262;-58
2022/01/30 03:57:47;;;;;;;1.20;1.00;;;8.60;99.90;;;;;;5049386;28;20177;-58
2022/01/30 04:00:13;;;;;;;2.50;1.17;;;8.60;99.90;;;;;;5071182;28;20540;-58
2022/01/30 04:02:40;;;;;;;1.42;1.02;;;8.40;99.90;;;;;;5061137;28;20921;-58
2022/01/30 04:05:06;;;;;;;1.20;1.10;;;8.50;99.90;;;;;;5067338;28;20200;-58
2022/01/30 04:07:32;;;;;;;3.33;1.30;;;8.80;99.90;;;;;;5071447;28;20180;-57
2022/01/30 04:09:58;;;;;;;1.90;1.10;;;8.70;99.90;;;;;;5063930;28;20271;-57
2022/01/30 04:12:25;;;;;;;3.35;1.10;;;8.50;99.90;;;;;;5053459;28;20663;-58
2022/01/30 04:14:51;;;;;;;2.22;1.27;;;8.60;99.90;;;;;;5061928;28;20582;-58
2022/01/30 04:17:18;;;;;;;3.93;1.40;;;9.20;99.90;;;;;;5059012;28;20574;-57
2022/01/30 04:19:44;;;;;;;2.75;1.95;;;8.70;99.90;;;;;;5066933;28;20447;-58
2022/01/30 04:22:10;;;;;;;2.20;1.40;;;8.80;99.90;;;;;;5071039;28;20189;-58
2022/01/30 04:24:36;;;;;;;2.15;1.40;;;9.00;99.90;;;;;;5066105;28;20451;-58
2022/01/30 04:27:02;;;;;;;2.30;1.30;;;8.80;99.90;;;;;;5061450;28;20196;-58
2022/01/30 04:29:28;;;;;;;3.67;1.30;;;8.90;99.90;;;;;;5068120;28;20441;-58
2022/01/30 04:31:54;;;;;;;2.60;1.40;;;9.00;99.90;;;;;;5059998;28;20439;-57
2022/01/30 04:34:20;;;;;;;3.00;1.70;;;8.80;99.90;;;;;;5062704;28;20461;-58
2022/01/30 04:53:14;;;;;;;3.38;2.60;;;8.80;99.90;;;;;;5062758;28;20655;-57
2022/01/30 04:56:23;;;;;;;5.18;2.22;;;8.70;99.90;;;;;;5049157;28;20242;-58
2022/01/30 04:58:36;;;;;;;4.93;2.53;;;8.60;99.90;;;;;;5066230;28;20671;-58
2022/01/30 05:01:18;;;;;;;4.63;2.35;;;8.70;99.90;;;;;;5065557;28;20192;-58
2022/01/30 05:06:18;;;;;;;5.15;2.80;;;8.40;99.90;;;;;;5066133;28;20181;-57
2022/01/30 05:08:44;;;;;;;5.25;3.13;;;8.50;99.90;;;;;;5067026;28;20181;-58
2022/01/30 05:11:10;;;;;;;5.15;2.85;;;8.30;99.90;;;;;;5052775;28;20650;-58
2022/01/30 05:13:43;;;;;;;5.35;2.75;;;8.60;99.90;;;;;;5066450;28;20224;-58
2022/01/30 05:16:09;;;;;;;4.97;2.30;;;8.20;99.90;;;;;;5065779;28;20226;-58
2022/01/30 05:18:35;;;;;;;4.30;2.40;;;8.50;99.90;;;;;;5059369;28;20191;-58
2022/01/30 05:21:01;;;;;;;5.33;2.37;;;8.50;99.90;;;;;;5066249;28;20181;-58
2022/01/30 05:23:27;;;;;;;4.57;3.00;;;8.40;99.90;;;;;;5059946;28;20803;-57
2022/01/30 05:25:53;;;;;;;6.30;2.63;;;8.30;99.90;;;;;;5051406;28;20184;-58
2022/01/30 05:28:24;;;;;;;4.60;2.97;;;8.50;99.90;;;;;;5065412;28;20185;-58
2022/01/30 05:30:51;;;;;;;3.67;2.65;;;8.40;99.90;;;;;;5066866;28;20243;-57
2022/01/30 05:33:17;;;;;;;4.22;2.90;;;8.20;99.90;;;;;;5060601;28;20208;-58
2022/01/30 05:35:43;;;;;;;5.60;3.05;;;8.30;99.90;;;;;;5055547;28;20224;-57
2022/01/30 05:38:09;;;;;;;6.35;2.95;;;8.20;99.90;;;;;;5065131;28;20224;-58
2022/01/30 05:40:35;;;;;;;8.60;4.00;;;8.20;99.90;;;;;;5064424;28;20276;-58
2022/01/30 05:43:03;;;;;;;4.07;2.90;;;8.30;99.90;;;;;;5066343;28;20923;-59
2022/01/30 05:48:06;;;;;;;6.80;3.33;;;7.90;99.90;;;;;;5063451;28;20494;-58
2022/01/30 05:50:32;;;;;;;6.45;2.95;;;8.40;99.90;;;;;;5063743;28;20265;-58
2022/01/30 05:52:58;;;;;;;3.55;2.80;;;8.20;99.90;;;;;;5066287;28;20196;-58
2022/01/30 05:55:24;;;;;;;5.50;3.40;;;8.30;99.90;;;;;;5063081;28;20208;-59
2022/01/30 05:57:50;;;;;;;6.37;2.90;;;8.20;99.90;;;;;;5053524;28;20442;-58
2022/01/30 06:00:16;;;;;;;6.53;3.10;;;8.30;99.90;;;;;;5066001;28;20548;-58
2022/01/30 06:02:45;;;;;;;5.07;2.70;;;8.20;99.90;;;;;;5048657;28;20189;-58
2022/01/30 06:05:14;;;;;;;3.78;2.85;;;8.30;99.90;;;;;;5064666;28;20208;-58
2022/01/30 06:07:48;;;;;;;8.25;3.80;;;8.30;99.90;;;;;;5062701;28;20191;-58
2022/01/30 06:10:14;;;;;;;8.48;3.45;;;8.20;99.90;;;;;;5064691;28;20202;-58
2022/01/30 06:12:40;;;;;;;6.63;3.17;;;8.50;99.90;;;;;;5057016;28;20643;-58
2022/01/30 06:15:06;;;;;;;5.97;3.10;;;8.50;99.90;;;;;;5060300;28;21468;-58
2022/01/30 06:17:32;;;;;;;6.43;3.30;;;8.20;99.90;;;;;;5063901;28;20268;-58
2022/01/30 06:19:58;;;;;;;5.60;3.23;;;8.30;99.90;;;;;;5067795;28;20271;-58
2022/01/30 06:22:23;;;;;;;5.07;3.10;;;8.20;99.90;;;;;;5069316;28;20189;-58
2022/01/30 06:24:49;;;;;;;8.53;3.00;;;8.20;99.90;;;;;;5065531;28;20272;-58
2022/01/30 06:27:15;;;;;;;5.27;2.87;;;8.40;99.90;;;;;;5068954;28;20680;-58
2022/01/30 06:29:40;;;;;;;8.23;3.20;;;8.20;99.90;;;;;;5063402;28;20217;-58
2022/01/30 06:32:06;;;;;;;3.47;2.87;;;8.30;99.90;;;;;;5063482;28;20200;-58
2022/01/30 06:34:32;;;;;;;5.20;2.90;;;8.20;99.90;;;;;;5066253;28;20689;-59
2022/01/30 06:36:58;;;;;;;6.30;3.00;;;8.00;99.90;;;;;;5067547;28;20196;-58
2022/01/30 06:39:23;;;;;;;6.63;2.73;;;8.00;99.90;;;;;;5067623;28;20330;-58
2022/01/30 06:41:50;;;;;;;5.37;2.30;;;7.90;99.90;;;;;;5071890;28;20644;-58
2022/01/30 06:44:16;;;;;;;8.32;3.45;;;8.00;99.90;;;;;;5069473;28;20223;-58
2022/01/30 06:46:41;;;;;;;5.87;2.70;;;7.70;99.90;;;;;;5055829;28;20480;-57
2022/01/30 06:49:07;;;;;;;6.30;2.60;;;7.70;99.90;;;;;;5063576;28;20527;-58
2022/01/30 06:51:33;;;;;;;7.43;2.80;;;7.60;99.90;;;;;;5069198;28;20196;-59
2022/01/30 06:53:58;;;;;;;12.60;3.73;;;7.90;99.90;;;;;;5072212;28;20201;-59
2022/01/30 06:56:24;;;;;;;5.50;3.37;;;7.50;99.90;;;;;;5066228;28;20181;-61
2022/01/30 06:58:53;;;;;;;4.30;2.90;;;7.10;99.90;;;;;;5064168;28;20209;-61
2022/01/30 07:01:18;;;;;;;6.72;2.63;;;7.70;99.90;;;;;;5063014;28;22072;-61
2022/01/30 07:03:44;;;;;;;7.70;2.80;;;7.20;99.90;;;;;;5060789;28;20700;-60
2022/01/30 07:06:10;;;;;;;7.30;3.90;;;7.40;99.90;;;;;;5058848;28;20181;-60
2022/01/30 07:08:35;;;;;;;4.30;3.17;;;6.80;99.90;;;;;;5063204;28;20194;-60
2022/01/30 07:11:01;;;;;;;6.13;3.77;;;7.20;99.90;;;;;;5061174;28;20205;-61
2022/01/30 07:13:26;;;;;;;5.63;3.50;;;7.20;99.90;;;;;;5068191;28;20853;-60
2022/01/30 07:15:52;;;;;;;5.30;2.40;;;7.20;99.90;;;;;;5059739;28;20721;-60
2022/01/30 07:18:18;;;;;;;8.50;2.93;;;6.80;99.90;;;;;;5054482;28;20264;-60
2022/01/30 07:20:43;;;;;;;4.80;2.87;;;7.20;99.90;;;;;;5069365;28;20196;-60
2022/01/30 07:23:09;;;;;;;7.57;3.40;;;7.20;99.90;;;;;;5064995;28;20204;-60
2022/01/30 07:25:34;;;;;;;7.90;3.53;;;7.20;99.90;;;;;;5068672;28;20185;-66
2022/01/30 07:28:00;;;;;;;5.20;3.03;;;7.00;99.90;;;;;;5063255;28;20204;-59
2022/01/30 07:30:26;;;;;;;8.40;3.13;;;7.00;99.90;;;;;;5069232;28;20216;-60
2022/01/30 07:32:51;;;;;;;6.40;3.07;;;7.00;99.90;;;;;;5051517;28;20193;-64
2022/01/30 07:35:17;;;;;;;10.40;4.73;;;7.30;99.90;;;;;;5069767;28;20266;-63
2022/01/30 07:37:43;;;;;;;6.20;2.80;;;7.30;99.90;;;;;;5068472;28;20263;-60
2022/01/30 07:40:10;;;;;;;6.72;3.63;;;7.20;99.90;;;;;;5066015;28;20279;-61
2022/01/30 07:42:35;;;;;;;4.80;3.05;;;7.40;99.90;;;;;;5067275;28;20193;-60
2022/01/30 07:45:01;;;;;;;7.60;3.37;;;7.40;99.90;;;;;;5062833;28;20220;-60
2022/01/30 07:47:27;;;;;;;5.40;3.90;;;7.40;99.90;;;;;;5056288;28;20189;-61
2022/01/30 07:49:52;;;;;;;4.97;3.47;;;7.60;99.90;;;;;;5069768;28;20489;-61
2022/01/30 07:52:22;;;;;;;4.80;3.07;;;7.70;99.90;;;;;;5061469;28;20201;-59
2022/01/30 07:54:48;;;;;;;9.32;3.60;;;7.60;99.90;;;;;;5063355;28;20201;-59
2022/01/30 07:57:14;;;;;;;12.80;5.03;;;7.70;99.90;;;;;;5068849;28;20178;-59
2022/01/30 07:59:41;;;;;;;7.00;3.60;;;7.70;99.90;;;;;;5061664;28;20188;-59
2022/01/30 08:02:07;;;;;;;5.40;3.60;;;7.60;99.90;;;;;;5060041;28;20486;-58
2022/01/30 08:04:33;;;;;;;5.20;2.92;;;7.80;99.90;;;;;;5071623;28;20212;-60
2022/01/30 08:06:59;;;;;;;9.77;3.63;;;7.80;99.90;;;;;;5064512;28;20178;-59
2022/01/30 08:09:25;;;;;;;8.43;3.20;;;7.60;99.90;;;;;;5067259;28;20205;-61
2022/01/30 08:11:51;;;;;;;9.90;3.70;;;7.80;99.90;;;;;;5063076;28;20200;-59
2022/01/30 08:14:16;;;;;;;6.87;3.20;;;7.50;99.90;;;;;;5060525;28;21037;-58
2022/01/30 08:16:42;;;;;;;5.73;4.30;;;7.50;99.90;;;;;;5061320;28;20308;-59
2022/01/30 08:19:08;;;;;;;7.80;3.57;;;7.50;99.90;;;;;;5072213;28;20207;-58
2022/01/30 08:21:33;;;;;;;8.40;3.20;;;7.60;99.90;;;;;;5068742;28;20223;-59
2022/01/30 08:23:59;;;;;;;6.90;3.40;;;7.50;99.90;;;;;;5067353;28;20205;-58
2022/01/30 08:26:24;;;;;;;4.60;3.23;;;7.60;99.90;;;;;;5059997;28;20228;-59
2022/01/30 08:28:50;;;;;;;6.67;3.10;;;7.90;99.90;;;;;;5068315;28;20231;-59
2022/01/30 08:31:16;;;;;;;4.57;3.27;;;8.00;99.90;;;;;;5065859;28;20181;-59
2022/01/30 08:33:41;;;;;;;6.50;2.90;;;8.10;99.90;;;;;;5066229;28;20626;-59
2022/01/30 08:36:07;;;;;;;7.33;3.03;;;7.60;99.90;;;;;;5065020;28;20181;-59
2022/01/30 08:38:33;;;;;;;7.77;3.30;;;8.30;99.90;;;;;;5066350;28;20653;-60
2022/01/30 08:40:58;;;;;;;6.93;3.10;;;8.50;99.90;;;;;;5069112;28;20421;-59
2022/01/30 08:43:24;;;;;;;6.20;2.90;;;8.10;99.90;;;;;;5062722;28;20693;-59
2022/01/30 08:45:51;;;;;;;8.83;2.53;;;7.90;99.90;;;;;;5069167;28;20189;-59
2022/01/30 08:48:17;;;;;;;7.75;3.90;;;8.10;99.90;;;;;;5057173;28;20428;-59
2022/01/30 08:50:44;;;;;;;5.00;3.28;;;8.10;99.90;;;;;;5068066;28;20596;-58
2022/01/30 08:53:10;;;;;;;6.38;3.15;;;7.80;99.90;;;;;;5066659;28;20177;-59
2022/01/30 08:55:35;;;;;;;14.57;4.80;;;7.80;99.90;;;;;;5066441;28;20188;-59
2022/01/30 08:58:07;;;;;;;4.07;3.13;;;8.00;99.90;;;;;;5055161;28;20439;-59
2022/01/30 09:00:35;;;;;;;11.00;3.45;;;7.70;99.90;;;;;;5063518;28;20186;-59
2022/01/30 09:03:02;;;;;;;5.85;3.20;;;7.90;99.90;;;;;;5060613;28;20197;-60
2022/01/30 09:05:29;;;;;;;7.18;3.28;;;7.90;99.90;;;;;;5058252;28;20189;-59
2022/01/30 09:07:55;;;;;;;9.90;3.78;;;7.80;99.90;;;;;;5063115;28;20181;-59
2022/01/30 09:10:20;;;;;;;8.50;3.20;;;8.20;99.90;;;;;;5058518;28;20277;-59
2022/01/30 09:12:46;;;;;;;8.40;3.20;;;8.00;99.90;;;;;;5065517;28;20292;-55
2022/01/30 09:15:14;;;;;;;3.83;3.17;;;8.10;99.90;;;;;;5066814;28;20204;-61
2022/01/30 09:17:40;;;;;;;8.65;2.75;;;8.80;99.90;;;;;;5056609;28;20185;-57
2022/01/30 09:20:07;;;;;;;5.87;3.63;;;8.30;99.90;;;;;;5064480;28;20215;-57
2022/01/30 09:22:33;;;;;;;7.82;3.17;;;8.50;99.90;;;;;;5066231;28;20209;-59
2022/01/30 09:24:59;;;;;;;7.80;3.00;;;8.40;99.90;;;;;;5061333;28;20247;-60
2022/01/30 09:27:25;;;;;;;3.50;2.40;;;8.30;99.90;;;;;;5047908;28;20841;-59
2022/01/30 09:29:50;;;;;;;7.30;3.53;;;8.50;99.90;;;;;;5068482;28;20910;-62
2022/01/30 09:32:17;;;;;;;9.63;3.63;;;8.20;99.90;;;;;;5059564;28;20336;-59
2022/01/30 09:34:43;;;;;;;6.38;2.95;;;8.40;99.90;;;;;;5065492;28;20552;-60
2022/01/30 09:37:09;;;;;;;8.13;3.50;;;8.40;99.90;;;;;;5049469;28;20687;-60
2022/01/30 09:39:36;;;;;;;6.78;3.17;;;8.60;99.90;;;;;;5063255;28;20189;-60
2022/01/30 09:42:02;;;;;;;8.43;3.00;;;8.40;99.30;;;;;;5060894;28;20592;-59
2022/01/30 09:44:28;;;;;;;8.32;3.90;;;8.90;99.50;;;;;;5062040;28;20216;-60
2022/01/30 09:46:53;;;;;;;9.00;3.63;;;9.00;99.50;;;;;;5054737;28;20184;-61
2022/01/30 09:49:23;;;;;;;8.70;3.20;;;9.40;99.10;;;;;;5051309;28;20204;-64
2022/01/30 09:51:51;;;;;;;9.45;3.30;;;9.50;98.40;;;;;;5065834;28;20176;-61
2022/01/30 09:54:17;;;;;;;7.68;2.88;;;9.30;97.90;;;;;;5057342;28;20753;-62
2022/01/30 09:56:42;;;;;;;5.77;3.03;;;9.20;98.20;;;;;;5040431;28;20707;-62
2022/01/30 09:59:08;;;;;;;7.40;3.63;;;9.00;98.60;;;;;;5055983;28;20724;-61
2022/01/30 10:01:37;;;;;;;9.10;3.73;;;9.10;97.90;;;;;;5062666;28;20181;-64
2022/01/30 10:04:04;;;;;;;6.53;3.30;;;9.10;97.90;;;;;;5067839;28;20209;-62
2022/01/30 10:06:37;;;;;;;8.13;3.42;;;8.80;96.60;;;;;;5060217;28;20239;-56
2022/01/30 10:09:31;;;;;;;6.20;2.90;;;8.90;96.70;;;;;;5060626;28;20192;-58
2022/01/30 10:12:28;;;;;;;10.48;4.70;;;9.00;97.00;;;;;;5056469;28;20980;-60
2022/01/30 10:15:04;;;;;;;4.57;3.22;;;8.60;97.20;;;;;;5048931;28;20224;-62
2022/01/30 10:17:31;;;;;;;7.45;3.60;;;8.70;97.20;;;;;;5047097;28;20185;-60
2022/01/30 10:20:01;;;;;;;8.60;3.40;;;8.60;97.20;;;;;;5063490;28;20181;-64
2022/01/30 10:22:27;;;;;;;9.68;2.95;;;8.50;97.40;;;;;;5069357;28;20193;-61
2022/01/30 10:24:52;;;;;;;5.40;3.27;;;8.20;97.00;;;;;;5065490;28;20296;-58
2022/01/30 10:27:24;;;;;;;6.20;3.17;;;8.40;97.10;;;;;;5060871;28;20264;-60
2022/01/30 10:30:07;;;;;;;9.20;3.30;;;8.70;97.30;;;;;;5055392;28;20473;-60
2022/01/30 10:32:34;;;;;;;7.90;2.78;;;8.70;96.50;;;;;;5057610;28;20218;-62
2022/01/30 10:35:08;;;;;;;7.22;3.00;;;8.90;96.70;;;;;;5061985;28;20370;-61
2022/01/30 10:37:38;;;;;;;8.20;3.60;;;8.80;96.30;;;;;;5058292;28;20189;-61
2022/01/30 10:40:11;;;;;;;10.30;2.72;;;8.90;96.70;;;;;;5060263;28;20181;-65
2022/01/30 10:42:44;;;;;;;10.68;4.07;;;8.50;96.00;;;;;;5066490;28;20197;-69
2022/01/30 10:45:25;;;;;;;7.72;2.58;;;8.40;95.90;;;;;;5052702;28;20885;-66
2022/01/30 10:48:17;;;;;;;5.18;2.42;;;8.50;96.10;;;;;;5054777;28;20180;-58
2022/01/30 10:50:45;;;;;;;7.70;2.60;;;8.70;95.70;;;;;;5061329;28;20681;-57
2022/01/30 10:53:18;;;;;;;5.43;2.70;;;8.60;94.90;;;;;;5060540;28;20236;-58
2022/01/30 10:55:45;;;;;;;5.50;2.85;;;8.60;94.90;;;;;;5066287;28;20238;-58
2022/01/30 10:58:17;;;;;;;5.85;2.42;;;8.90;94.70;;;;;;5053964;28;20185;-58
2022/01/30 11:00:52;;;;;;;4.72;2.45;;;9.00;94.40;;;;;;5061301;28;20185;-58
2022/01/30 11:04:00;;;;;;;6.25;2.60;;;9.30;93.90;;;;;;5058673;28;20189;-57
2022/01/30 11:06:28;;;;;;;6.63;3.47;;;9.20;93.90;;;;;;5026803;28;20690;-59
2022/01/30 11:08:54;;;;;;;8.25;2.65;;;9.60;94.20;;;;;;5011614;28;20189;-60
2022/01/30 11:11:29;;;;;;;6.97;2.83;;;9.40;93.90;;;;;;5049188;28;20193;-60
2022/01/30 11:19:18;;;;;;;5.65;2.72;;;9.60;94.10;;;;;;5068946;28;20232;-57
2022/01/30 11:21:48;;;;;;;6.93;2.60;;;9.30;94.10;;;;;;5066144;28;20177;-60
2022/01/30 11:24:15;;;;;;;6.03;2.50;;;9.00;93.70;;;;;;5064971;28;20720;-60
2022/01/30 11:26:42;;;;;;;6.57;2.90;;;9.30;94.00;;;;;;5055197;28;20331;-61
2022/01/30 11:29:13;;;;;;;9.65;2.67;;;9.00;94.10;;;;;;5064278;28;20239;-60
2022/01/30 11:31:40;;;;;;;10.50;3.10;;;8.80;94.50;;;;;;5056633;28;20186;-60
2022/01/30 11:34:05;;;;;;;11.23;3.60;;;8.90;94.60;;;;;;5063318;28;20196;-59
2022/01/30 11:36:34;;;;;;;8.30;2.90;;;9.10;95.10;;;;;;5063954;28;20244;-61
2022/01/30 11:39:00;;;;;;;5.10;2.65;;;9.10;93.40;;;;;;5067114;28;20622;-60
2022/01/30 11:41:26;;;;;;;7.13;2.60;;;10.00;92.60;;;;;;5069360;28;20212;-62
2022/01/30 11:44:17;;;;;;;6.00;2.72;;;11.00;90.90;;;;;;5053647;28;20211;-61
2022/01/30 11:47:03;;;;;;;6.63;2.88;;;11.80;86.20;;;;;;5057262;28;20197;-63
2022/01/30 11:49:43;;;;;;;6.40;2.55;;;12.00;84.80;;;;;;5052359;28;20255;-63
2022/01/30 11:52:10;;;;;;;5.82;2.13;;;11.90;83.00;;;;;;5067049;28;20185;-63
2022/01/30 11:54:50;;;;;;;6.45;2.58;;;11.90;81.60;;;;;;5066926;28;20196;-63
2022/01/30 11:57:21;;;;;;;6.65;2.40;;;11.70;81.70;;;;;;5064020;28;20737;-63
2022/01/30 11:59:52;;;;;;;9.38;2.97;;;11.50;81.60;;;;;;5064026;28;20198;-63
2022/01/30 12:02:27;;;;;;;4.93;2.42;;;11.40;82.20;;;;;;5057111;28;20568;-64
2022/01/30 12:05:08;;;;;;;6.55;2.88;;;11.20;82.90;;;;;;5061102;28;20211;-59
2022/01/30 12:07:35;;;;;;;6.28;2.88;;;10.60;84.50;;;;;;5056698;28;20279;-60
2022/01/30 12:10:15;;;;;;;6.47;2.90;;;10.60;86.30;;;;;;5070261;28;20684;-60
2022/01/30 12:12:58;;;;;;;5.72;2.80;;;10.40;86.00;;;;;;5059279;28;20185;-60
2022/01/30 12:15:40;;;;;;;7.40;3.25;;;10.20;85.10;;;;;;5065383;28;20216;-60
2022/01/30 12:18:14;;;;;;;6.93;3.90;;;10.00;86.60;;;;;;5058678;28;20185;-60
2022/01/30 12:21:08;;;;;;;5.50;2.30;;;10.00;86.80;;;;;;5062149;28;20272;-60
2022/01/30 12:23:39;;;;;;;6.47;2.88;;;10.00;85.90;;;;;;5060629;28;20283;-60
2022/01/30 12:26:08;;;;;;;7.30;2.92;;;9.80;88.10;;;;;;5061030;28;20186;-61
2022/01/30 12:28:40;;;;;;;5.15;2.40;;;10.20;85.90;;;;;;5063284;28;20600;-63
2022/01/30 12:31:25;;;;;;;6.13;2.80;;;10.70;85.40;;;;;;5064890;28;20210;-64
2022/01/30 12:34:00;;;;;;;6.10;2.85;;;10.80;84.00;;;;;;5057574;28;20221;-63
2022/01/30 12:36:25;;;;;;;6.30;3.00;;;10.40;84.10;;;;;;5064850;28;20189;-62
2022/01/30 12:38:54;;;;;;;6.33;2.77;;;10.70;85.50;;;;;;5061635;28;20174;-63
2022/01/30 12:41:21;;;;;;;5.32;2.80;;;10.70;86.70;;;;;;5055108;28;20438;-63
2022/01/30 12:43:54;;;;;;;6.40;2.85;;;10.20;84.60;;;;;;5056902;28;20620;-63
2022/01/30 12:46:23;;;;;;;7.38;2.70;;;10.30;87.00;;;;;;5061818;28;20418;-62
2022/01/30 12:49:10;;;;;;;5.32;2.70;;;10.20;85.90;;;;;;5063868;28;20218;-63
2022/01/30 12:51:38;;;;;;;3.05;2.78;;;10.30;86.10;;;;;;5061915;28;20273;-63
2022/01/30 12:54:06;;;;;;;7.63;4.00;;;10.30;85.80;;;;;;5057376;28;20297;-63
2022/01/30 12:56:32;;;;;;;3.75;2.65;;;10.30;86.00;;;;;;5047488;28;20178;-62
2022/01/30 12:59:06;;;;;;;8.35;2.55;;;10.40;85.70;;;;;;5071761;28;20177;-63
2022/01/30 13:01:34;;;;;;;5.25;2.20;;;10.30;85.80;;;;;;5059605;28;21872;-62
2022/01/30 13:04:02;;;;;;;6.05;2.47;;;10.20;85.20;;;;;;5064088;28;20207;-63
2022/01/30 13:06:38;;;;;;;6.68;2.83;;;10.00;85.70;;;;;;5063934;28;20185;-63
2022/01/30 13:09:05;;;;;;;11.10;3.10;;;9.80;87.50;;;;;;5061851;28;20179;-63
2022/01/30 13:11:32;;;;;;;6.53;2.83;;;9.80;88.20;;;;;;5062267;28;20270;-67
2022/01/30 13:14:02;;;;;;;9.52;3.03;;;10.00;88.30;;;;;;5064690;28;20214;-64
2022/01/30 13:16:50;;;;;;;9.10;2.90;;;9.90;89.30;;;;;;5062154;28;20189;-63
2022/01/30 13:19:32;;;;;;;7.25;3.53;;;10.30;89.60;;;;;;5068428;28;20242;-63
2022/01/30 13:21:59;;;;;;;7.72;3.25;;;10.20;87.00;;;;;;5066652;28;20196;-62
2022/01/30 13:24:25;;;;;;;5.75;3.30;;;9.90;88.00;;;;;;5064358;28;20255;-63
2022/01/30 13:27:01;;;;;;;3.88;3.30;;;10.10;87.80;;;;;;5055410;28;20181;-65
2022/01/30 13:29:27;;;;;;;6.50;3.63;;;10.10;86.10;;;;;;5059642;28;20209;-63
2022/01/30 13:31:56;;;;;;;7.70;2.80;;;9.80;87.50;;;;;;5061869;28;20200;-63
2022/01/30 13:34:28;;;;;;;5.80;2.70;;;9.80;87.90;;;;;;5065689;28;20212;-63
2022/01/30 13:37:09;;;;;;;8.35;2.90;;;9.80;87.20;;;;;;5067477;28;20649;-63
2022/01/30 13:39:43;;;;;;;5.28;2.70;;;10.20;87.20;;;;;;5053508;28;20277;-64
2022/01/30 13:42:27;;;;;;;9.73;2.90;;;10.00;86.40;;;;;;5060749;28;20189;-62
2022/01/30 13:46:54;;;;;;;7.32;2.67;;;9.70;87.20;;;;;;5064740;28;20888;-63
2022/01/30 13:47:40;;;;;;;5.45;2.55;;;9.60;86.70;;;;;;5054831;28;20243;-62
2022/01/30 13:50:15;;;;;;;4.40;2.55;;;9.50;86.70;;;;;;5067713;28;20205;-62
2022/01/30 13:52:41;;;;;;;7.68;2.80;;;9.40;87.30;;;;;;5066988;28;22101;-62
2022/01/30 13:55:07;;;;;;;7.30;2.90;;;9.10;87.10;;;;;;5054026;28;20208;-61
2022/01/30 13:57:35;;;;;;;7.35;2.85;;;9.10;88.20;;;;;;5059991;28;20185;-62
2022/01/30 14:00:06;;;;;;;5.65;3.00;;;9.10;88.50;;;;;;5065735;28;20184;-62